createdAt,value
2019-03-01T00:00:41.981Z,100346.22
2019-03-01T00:03:13.385Z,100333.36
2019-03-01T00:06:18.979Z,100334.64
2019-03-01T00:09:55.096Z,100333.69
2019-03-01T00:13:08.301Z,100335.80
2019-03-01T00:16:35.427Z,100334.91
2019-03-01T00:19:54.771Z,100323.12
2019-03-01T00:23:11.563Z,100314.87
2019-03-01T00:26:17.608Z,100309.70
2019-03-01T00:29:58.744Z,100310.52
2019-03-01T00:33:21.367Z,100308.16
2019-03-01T00:36:39.196Z,100301.92
2019-03-01T00:40:44.167Z,100305.11
2019-03-01T00:44:16.648Z,100298.45
2019-03-01T00:46:47.347Z,100291.51
2019-03-01T00:49:17.996Z,100292.02
2019-03-01T00:51:49.234Z,100298.16
2019-03-01T00:54:20.390Z,100295.89
2019-03-01T00:56:52.043Z,100284.41
2019-03-01T00:59:22.473Z,100283.05
2019-03-01T01:01:54.132Z,100278.67
2019-03-01T01:04:25.385Z,100278.82
2019-03-01T01:06:55.606Z,100273.66
2019-03-01T01:09:26.842Z,100273.23
2019-03-01T01:11:57.399Z,100274.28
2019-03-01T01:14:27.538Z,100266.09
2019-03-01T01:16:59.649Z,100267.20
2019-03-01T01:19:31.137Z,100265.17
2019-03-01T01:22:01.566Z,100262.39
2019-03-01T01:24:33.329Z,100264.86
2019-03-01T01:27:04.203Z,100262.78
2019-03-01T01:29:36.650Z,100259.54
2019-03-01T01:32:08.305Z,100260.98
2019-03-01T01:34:39.679Z,100256.64
2019-03-01T01:37:10.806Z,100259.93
2019-03-01T01:39:42.561Z,100255.42
2019-03-01T01:42:12.894Z,100256.55
2019-03-01T01:44:44.653Z,100246.36
2019-03-01T01:47:15.194Z,100246.36
2019-03-01T01:49:45.950Z,100238.59
2019-03-01T01:52:16.255Z,100235.27
2019-03-01T01:54:49.449Z,100236.47
2019-03-01T01:57:21.519Z,100234.52
2019-03-01T01:59:53.498Z,100229.93
2019-03-01T02:02:25.863Z,100227.98
2019-03-01T02:04:57.107Z,100225.62
2019-03-01T02:07:27.640Z,100232.05
2019-03-01T02:09:59.131Z,100227.90
2019-03-01T02:12:31.983Z,100227.63
2019-03-01T02:15:04.154Z,100228.69
2019-03-01T02:17:34.728Z,100218.58
2019-03-01T02:20:06.546Z,100221.98
2019-03-01T02:22:36.878Z,100213.59
2019-03-01T02:25:09.365Z,100214.66
2019-03-01T02:27:40.554Z,100207.92
2019-03-01T02:30:19.796Z,100206.16
2019-03-01T02:32:56.676Z,100205.33
2019-03-01T02:35:28.698Z,100206.23
2019-03-01T02:38:01.059Z,100200.31
2019-03-01T02:40:35.818Z,100198.95
2019-03-01T02:43:06.521Z,100200.16
2019-03-01T02:45:38.081Z,100200.98
2019-03-01T02:48:08.629Z,100191.23
2019-03-01T02:50:38.851Z,100185.98
2019-03-01T02:53:10.106Z,100193.23
2019-03-01T02:55:40.728Z,100186.30
2019-03-01T02:58:12.075Z,100186.61
2019-03-01T03:00:44.143Z,100182.11
2019-03-01T03:03:16.562Z,100184.61
2019-03-01T03:06:06.596Z,100183.01
2019-03-01T03:08:38.887Z,100188.84
2019-03-01T03:11:10.522Z,100189.75
2019-03-01T03:13:40.959Z,100185.56
2019-03-01T03:16:12.648Z,100188.61
2019-03-01T03:18:43.743Z,100182.07
2019-03-01T03:21:13.991Z,100181.99
2019-03-01T03:23:44.389Z,100181.22
2019-03-01T03:26:14.960Z,100171.14
2019-03-01T03:28:47.254Z,100177.41
2019-03-01T03:31:17.660Z,100173.38
2019-03-01T03:33:48.245Z,100167.81
2019-03-01T03:36:19.031Z,100175.20
2019-03-01T03:38:49.186Z,100175.20
2019-03-01T03:41:20.041Z,100176.81
2019-03-01T03:43:50.613Z,100176.66
2019-03-01T03:46:20.865Z,100175.28
2019-03-01T03:48:53.129Z,100173.99
2019-03-01T03:51:23.528Z,100171.95
2019-03-01T03:53:54.064Z,100172.58
2019-03-01T03:56:24.792Z,100169.13
2019-03-01T03:58:56.919Z,100169.95
2019-03-01T04:01:28.559Z,100170.70
2019-03-01T04:04:00.831Z,100172.63
2019-03-01T04:06:32.388Z,100165.15
2019-03-01T04:09:04.385Z,100165.84
2019-03-01T04:11:36.036Z,100159.70
2019-03-01T04:14:06.429Z,100159.08
2019-03-01T04:16:37.053Z,100159.23
2019-03-01T04:19:07.817Z,100160.29
2019-03-01T04:21:37.942Z,100158.45
2019-03-01T04:24:08.314Z,100152.78
2019-03-01T04:26:38.724Z,100150.15
2019-03-01T04:29:10.018Z,100155.84
2019-03-01T04:31:41.471Z,100155.13
2019-03-01T04:34:11.881Z,100156.73
2019-03-01T04:36:44.453Z,100149.88
2019-03-01T04:39:14.885Z,100149.56
2019-03-01T04:41:45.533Z,100147.92
2019-03-01T04:44:15.788Z,100147.06
2019-03-01T04:46:46.485Z,100142.20
2019-03-01T04:49:18.006Z,100145.57
2019-03-01T04:51:49.557Z,100145.10
2019-03-01T04:54:19.680Z,100144.05
2019-03-01T04:56:51.063Z,100141.93
2019-03-01T04:59:21.419Z,100142.09
2019-03-01T05:01:53.159Z,100141.38
2019-03-01T05:04:25.216Z,100144.86
2019-03-01T05:06:58.484Z,100137.66
2019-03-01T05:09:29.639Z,100137.15
2019-03-01T05:12:01.741Z,100130.58
2019-03-01T05:14:31.840Z,100129.52
2019-03-01T05:17:02.111Z,100131.41
2019-03-01T05:19:32.415Z,100128.70
2019-03-01T05:22:03.690Z,100129.05
2019-03-01T05:24:33.858Z,100120.55
2019-03-01T05:27:06.094Z,100124.58
2019-03-01T05:29:36.457Z,100129.44
2019-03-01T05:32:07.947Z,100135.28
2019-03-01T05:34:38.319Z,100134.69
2019-03-01T05:37:08.772Z,100135.28
2019-03-01T05:39:41.384Z,100141.14
2019-03-01T05:42:11.884Z,100140.41
2019-03-01T05:44:43.543Z,100140.25
2019-03-01T05:47:15.099Z,100135.98
2019-03-01T05:49:47.474Z,100137.23
2019-03-01T05:52:17.550Z,100146.54
2019-03-01T05:54:47.690Z,100143.50
2019-03-01T05:57:17.796Z,100145.80
2019-03-01T05:59:48.224Z,100146.79
2019-03-01T06:02:57.595Z,100151.41
2019-03-01T06:05:49.211Z,100146.40
2019-03-01T06:09:13.671Z,100152.86
2019-03-01T06:12:41.742Z,100153.72
2019-03-01T06:16:11.944Z,100150.27
2019-03-01T06:19:50.443Z,100144.00
2019-03-01T06:23:10.560Z,100145.49
2019-03-01T06:26:28.471Z,100141.38
2019-03-01T06:30:12.061Z,100142.98
2019-03-01T06:33:28.757Z,100147.09
2019-03-01T06:36:19.602Z,100153.01
2019-03-01T06:39:51.799Z,100158.53
2019-03-01T06:43:32.647Z,100158.99
2019-03-01T06:47:05.289Z,100155.87
2019-03-01T06:49:53.823Z,100157.01
2019-03-01T06:52:25.189Z,100151.84
2019-03-01T06:54:55.497Z,100149.88
2019-03-01T06:57:25.883Z,100152.31
2019-03-01T06:59:57.901Z,100151.33
2019-03-01T07:02:35.701Z,100144.56
2019-03-01T07:05:07.944Z,100152.27
2019-03-01T07:07:38.198Z,100153.72
2019-03-01T07:10:09.872Z,100156.14
2019-03-01T07:12:40.291Z,100155.63
2019-03-01T07:15:10.826Z,100160.21
2019-03-01T07:17:41.355Z,100156.64
2019-03-01T07:20:12.696Z,100165.15
2019-03-01T07:22:43.242Z,100163.85
2019-03-01T07:25:13.910Z,100169.15
2019-03-01T07:27:45.533Z,100170.62
2019-03-01T07:30:15.954Z,100170.62
2019-03-01T07:32:48.032Z,100174.12
2019-03-01T07:35:19.350Z,100173.22
2019-03-01T07:37:49.717Z,100173.61
2019-03-01T07:40:20.152Z,100182.58
2019-03-01T07:42:50.631Z,100185.50
2019-03-01T07:45:22.155Z,100187.55
2019-03-01T07:47:53.949Z,100190.13
2019-03-01T07:50:26.061Z,100196.80
2019-03-01T07:52:56.616Z,100191.19
2019-03-01T07:55:29.840Z,100195.22
2019-03-01T07:58:01.988Z,100203.60
2019-03-01T08:00:32.349Z,100199.02
2019-03-01T08:03:05.588Z,100198.81
2019-03-01T08:05:39.403Z,100197.45
2019-03-01T08:08:09.414Z,100202.98
2019-03-01T08:10:41.830Z,100204.67
2019-03-01T08:13:14.829Z,100211.08
2019-03-01T08:15:44.908Z,100210.14
2019-03-01T08:18:16.201Z,100214.80
2019-03-01T08:20:48.262Z,100219.59
2019-03-01T08:23:18.479Z,100217.23
2019-03-01T08:25:48.826Z,100223.91
2019-03-01T08:28:21.980Z,100229.09
2019-03-01T08:30:52.015Z,100227.34
2019-03-01T08:33:22.317Z,100236.78
2019-03-01T08:35:54.475Z,100230.23
2019-03-01T08:38:28.792Z,100217.59
2019-03-01T08:40:57.716Z,100224.28
2019-03-01T08:43:29.773Z,100226.64
2019-03-01T08:46:01.745Z,100234.52
2019-03-01T08:48:33.612Z,100232.83
2019-03-01T08:51:06.795Z,100239.91
2019-03-01T08:53:37.124Z,100243.77
2019-03-01T08:56:10.948Z,100246.27
2019-03-01T08:58:41.461Z,100243.56
2019-03-01T09:01:13.064Z,100245.53
2019-03-01T09:03:52.992Z,100247.52
2019-03-01T09:06:23.638Z,100252.07
2019-03-01T09:08:55.569Z,100250.63
2019-03-01T09:11:26.016Z,100251.76
2019-03-01T09:13:58.061Z,100255.33
2019-03-01T09:16:29.424Z,100250.86
2019-03-01T09:19:00.880Z,100255.68
2019-03-01T09:21:31.215Z,100256.27
2019-03-01T09:24:02.658Z,100257.09
2019-03-01T09:26:33.198Z,100255.84
2019-03-01T09:29:04.137Z,100259.80
2019-03-01T09:31:34.440Z,100260.34
2019-03-01T09:34:06.363Z,100260.34
2019-03-01T09:36:40.628Z,100260.25
2019-03-01T09:39:14.424Z,100261.23
2019-03-01T09:41:44.800Z,100266.60
2019-03-01T09:44:15.697Z,100273.70
2019-03-01T09:46:47.183Z,100276.28
2019-03-01T09:49:21.470Z,100285.99
2019-03-01T09:51:51.934Z,100281.48
2019-03-01T09:54:22.318Z,100278.00
2019-03-01T09:56:54.837Z,100286.46
2019-03-01T09:59:26.622Z,100293.51
2019-03-01T10:01:58.089Z,100290.53
2019-03-01T10:04:28.613Z,100291.75
2019-03-01T10:06:59.201Z,100303.44
2019-03-01T10:09:30.723Z,100307.50
2019-03-01T10:12:02.442Z,100308.13
2019-03-01T10:14:32.867Z,100316.85
2019-03-01T10:17:03.503Z,100308.81
2019-03-01T10:19:34.818Z,100313.84
2019-03-01T10:22:08.021Z,100308.88
2019-03-01T10:24:39.809Z,100315.98
2019-03-01T10:27:11.878Z,100320.19
2019-03-01T10:29:42.313Z,100319.25
2019-03-01T10:32:13.608Z,100314.17
2019-03-01T10:34:45.909Z,100321.61
2019-03-01T10:37:17.435Z,100316.28
2019-03-01T10:39:55.311Z,100319.97
2019-03-01T10:42:20.175Z,100324.69
2019-03-01T10:44:50.542Z,100320.94
2019-03-01T10:47:23.758Z,100333.23
2019-03-01T10:49:55.344Z,100341.98
2019-03-01T10:52:26.154Z,100341.23
2019-03-01T10:54:56.538Z,100345.92
2019-03-01T10:57:26.911Z,100346.16
2019-03-01T10:59:57.252Z,100348.44
2019-03-01T11:02:28.446Z,100343.35
2019-03-01T11:04:59.673Z,100341.50
2019-03-01T11:07:32.789Z,100337.86
2019-03-01T11:10:05.179Z,100344.61
2019-03-01T11:12:36.856Z,100336.96
2019-03-01T11:15:08.369Z,100339.56
2019-03-01T11:17:39.218Z,100354.24
2019-03-01T11:20:11.561Z,100362.64
2019-03-01T11:22:42.058Z,100364.52
2019-03-01T11:25:13.837Z,100374.84
2019-03-01T11:27:46.878Z,100364.51
2019-03-01T11:30:23.306Z,100373.67
2019-03-01T11:32:54.911Z,100378.16
2019-03-01T11:35:25.432Z,100374.83
2019-03-01T11:37:56.087Z,100387.09
2019-03-01T11:40:30.776Z,100394.50
2019-03-01T11:43:01.626Z,100398.98
2019-03-01T11:45:32.583Z,100400.12
2019-03-01T11:48:03.992Z,100400.85
2019-03-01T11:50:35.390Z,100399.47
2019-03-01T11:53:06.030Z,100411.03
2019-03-01T11:55:38.551Z,100413.08
2019-03-01T11:58:09.795Z,100410.98
2019-03-01T12:00:40.748Z,100409.14
2019-03-01T12:03:15.329Z,100414.10
2019-03-01T12:05:46.577Z,100417.34
2019-03-01T12:08:16.903Z,100424.44
2019-03-01T12:10:47.437Z,100420.98
2019-03-01T12:13:17.972Z,100428.20
2019-03-01T12:15:50.343Z,100429.76
2019-03-01T12:18:20.755Z,100439.87
2019-03-01T12:20:54.169Z,100441.14
2019-03-01T12:23:24.703Z,100438.77
2019-03-01T12:25:56.092Z,100443.04
2019-03-01T12:28:27.306Z,100449.02
2019-03-01T12:30:57.564Z,100456.94
2019-03-01T12:33:28.069Z,100455.16
2019-03-01T12:35:58.394Z,100462.70
2019-03-01T12:38:31.525Z,100464.98
2019-03-01T12:41:01.834Z,100467.09
2019-03-01T12:43:33.976Z,100469.44
2019-03-01T12:46:04.444Z,100477.13
2019-03-01T12:48:36.262Z,100485.70
2019-03-01T12:51:06.482Z,100480.00
2019-03-01T12:53:36.884Z,100480.11
2019-03-01T12:56:07.217Z,100480.34
2019-03-01T12:58:37.825Z,100491.42
2019-03-01T13:01:09.816Z,100489.33
2019-03-01T13:03:43.942Z,100492.05
2019-03-01T13:06:15.471Z,100491.86
2019-03-01T13:08:47.702Z,100498.09
2019-03-01T13:11:20.621Z,100500.72
2019-03-01T13:13:51.051Z,100511.11
2019-03-01T13:16:23.413Z,100515.03
2019-03-01T13:18:54.053Z,100515.48
2019-03-01T13:21:25.843Z,100508.11
2019-03-01T13:23:56.288Z,100518.19
2019-03-01T13:26:26.786Z,100519.34
2019-03-01T13:28:58.927Z,100519.00
2019-03-01T13:31:29.030Z,100529.47
2019-03-01T13:33:59.547Z,100528.80
2019-03-01T13:36:29.793Z,100528.48
2019-03-01T13:39:00.365Z,100522.74
2019-03-01T13:41:33.943Z,100525.31
2019-03-01T13:44:04.192Z,100523.44
2019-03-01T13:46:35.555Z,100531.06
2019-03-01T13:49:06.828Z,100524.78
2019-03-01T13:51:39.052Z,100532.23
2019-03-01T13:54:09.854Z,100525.56
2019-03-01T13:56:40.319Z,100528.37
2019-03-01T13:59:10.753Z,100529.58
2019-03-01T14:01:41.538Z,100533.95
2019-03-01T14:04:12.021Z,100531.16
2019-03-01T14:06:42.385Z,100543.48
2019-03-01T14:09:14.219Z,100546.70
2019-03-01T14:11:45.192Z,100549.55
2019-03-01T14:14:16.394Z,100550.66
2019-03-01T14:16:47.775Z,100551.00
2019-03-01T14:19:19.842Z,100552.42
2019-03-01T14:21:50.581Z,100545.98
2019-03-01T14:24:22.133Z,100548.22
2019-03-01T14:26:53.920Z,100552.95
2019-03-01T14:29:26.187Z,100554.53
2019-03-01T14:31:57.403Z,100549.55
2019-03-01T14:34:27.935Z,100557.56
2019-03-01T14:36:58.366Z,100560.52
2019-03-01T14:39:29.821Z,100562.32
2019-03-01T14:42:02.509Z,100561.73
2019-03-01T14:44:33.864Z,100560.94
2019-03-01T14:47:05.309Z,100570.13
2019-03-01T14:49:35.885Z,100573.17
2019-03-01T14:52:06.282Z,100575.27
2019-03-01T14:54:37.765Z,100573.22
2019-03-01T14:57:26.475Z,100570.94
2019-03-01T15:00:37.842Z,100568.55
2019-03-01T15:03:37.134Z,100571.25
2019-03-01T15:06:10.836Z,100575.50
2019-03-01T15:08:44.270Z,100578.38
2019-03-01T15:11:19.705Z,100571.36
2019-03-01T15:13:52.633Z,100581.66
2019-03-01T15:16:23.649Z,100586.17
2019-03-01T15:18:55.894Z,100589.33
2019-03-01T15:21:26.443Z,100588.76
2019-03-01T15:24:00.440Z,100586.70
2019-03-01T15:26:29.220Z,100590.39
2019-03-01T15:29:00.998Z,100593.25
2019-03-01T15:31:31.824Z,100590.63
2019-03-01T15:34:02.268Z,100592.69
2019-03-01T15:36:32.897Z,100594.38
2019-03-01T15:39:04.882Z,100592.03
2019-03-01T15:41:39.221Z,100590.03
2019-03-01T15:44:09.106Z,100594.44
2019-03-01T15:46:41.564Z,100597.42
2019-03-01T15:49:15.234Z,100601.58
2019-03-01T15:51:46.744Z,100609.50
2019-03-01T15:54:16.995Z,100615.30
2019-03-01T15:56:47.682Z,100623.63
2019-03-01T15:59:18.182Z,100627.71
2019-03-01T16:01:48.666Z,100634.39
2019-03-01T16:04:22.726Z,100638.61
2019-03-01T16:06:56.214Z,100643.58
2019-03-01T16:09:26.412Z,100647.52
2019-03-01T16:11:57.513Z,100654.02
2019-03-01T16:14:29.295Z,100650.80
2019-03-01T16:17:01.684Z,100653.19
2019-03-01T16:19:32.843Z,100657.00
2019-03-01T16:22:03.403Z,100655.71
2019-03-01T16:24:33.827Z,100664.63
2019-03-01T16:27:04.531Z,100665.00
2019-03-01T16:29:38.778Z,100668.05
2019-03-01T16:32:09.674Z,100661.97
2019-03-01T16:34:43.308Z,100662.55
2019-03-01T16:37:16.813Z,100662.03
2019-03-01T16:39:49.132Z,100659.05
2019-03-01T16:42:20.124Z,100663.47
2019-03-01T16:44:50.853Z,100664.89
2019-03-01T16:47:23.325Z,100667.40
2019-03-01T16:49:54.006Z,100673.31
2019-03-01T16:52:26.423Z,100679.25
2019-03-01T16:54:58.155Z,100686.95
2019-03-01T16:57:28.743Z,100685.26
2019-03-01T17:00:01.322Z,100690.47
2019-03-01T17:02:32.894Z,100694.19
2019-03-01T17:05:05.325Z,100696.91
2019-03-01T17:07:36.173Z,100701.08
2019-03-01T17:10:08.968Z,100701.39
2019-03-01T17:12:40.890Z,100707.31
2019-03-01T17:15:15.687Z,100706.36
2019-03-01T17:17:46.213Z,100710.44
2019-03-01T17:20:18.784Z,100716.33
2019-03-01T17:22:49.173Z,100713.06
2019-03-01T17:25:19.579Z,100717.30
2019-03-01T17:27:49.720Z,100716.83
2019-03-01T17:30:20.907Z,100725.42
2019-03-01T17:32:53.015Z,100724.09
2019-03-01T17:35:23.357Z,100730.77
2019-03-01T17:37:53.726Z,100733.16
2019-03-01T17:40:25.791Z,100740.88
2019-03-01T17:42:56.585Z,100737.59
2019-03-01T17:45:28.789Z,100734.70
2019-03-01T17:47:59.444Z,100742.06
2019-03-01T17:50:30.189Z,100745.05
2019-03-01T17:53:01.173Z,100744.27
2019-03-01T17:55:34.453Z,100747.81
2019-03-01T17:58:05.514Z,100745.55
2019-03-01T18:00:37.414Z,100755.57
2019-03-01T18:03:09.525Z,100762.70
2019-03-01T18:05:40.654Z,100764.04
2019-03-01T18:08:13.954Z,100768.53
2019-03-01T18:10:48.932Z,100770.14
2019-03-01T18:13:21.855Z,100766.61
2019-03-01T18:15:52.301Z,100769.91
2019-03-01T18:18:23.635Z,100774.84
2019-03-01T18:20:55.206Z,100773.14
2019-03-01T18:23:26.230Z,100775.63
2019-03-01T18:25:59.682Z,100774.56
2019-03-01T18:28:30.331Z,100779.98
2019-03-01T18:31:00.734Z,100780.13
2019-03-01T18:33:30.845Z,100779.16
2019-03-01T18:36:03.261Z,100781.63
2019-03-01T18:38:33.592Z,100777.09
2019-03-01T18:41:06.250Z,100782.94
2019-03-01T18:43:39.142Z,100787.70
2019-03-01T18:46:10.163Z,100786.05
2019-03-01T18:48:44.060Z,100795.63
2019-03-01T18:51:15.343Z,100794.24
2019-03-01T18:53:46.091Z,100793.17
2019-03-01T18:56:17.082Z,100789.69
2019-03-01T18:58:48.983Z,100788.67
2019-03-01T19:01:21.408Z,100784.41
2019-03-01T19:03:53.669Z,100788.73
2019-03-01T19:06:24.733Z,100796.54
2019-03-01T19:08:55.859Z,100793.17
2019-03-01T19:11:28.197Z,100790.28
2019-03-01T19:14:01.864Z,100792.95
2019-03-01T19:16:33.412Z,100799.16
2019-03-01T19:19:04.189Z,100797.64
2019-03-01T19:21:35.053Z,100798.79
2019-03-01T19:24:08.161Z,100796.13
2019-03-01T19:26:37.992Z,100796.72
2019-03-01T19:29:11.797Z,100797.04
2019-03-01T19:31:44.960Z,100794.51
2019-03-01T19:34:18.044Z,100795.57
2019-03-01T19:36:49.388Z,100797.45
2019-03-01T19:39:21.618Z,100788.17
2019-03-01T19:41:58.031Z,100787.80
2019-03-01T19:44:29.069Z,100788.08
2019-03-01T19:47:00.769Z,100794.33
2019-03-01T19:49:32.671Z,100801.41
2019-03-01T19:52:09.429Z,100801.22
2019-03-01T19:54:38.375Z,100798.83
2019-03-01T19:57:11.056Z,100801.31
2019-03-01T19:59:41.761Z,100804.80
2019-03-01T20:02:13.196Z,100794.83
2019-03-01T20:04:45.746Z,100803.88
2019-03-01T20:07:19.830Z,100803.61
2019-03-01T20:09:48.595Z,100806.97
2019-03-01T20:12:19.413Z,100810.27
2019-03-01T20:14:51.643Z,100805.44
2019-03-01T20:17:22.385Z,100800.08
2019-03-01T20:19:53.528Z,100805.98
2019-03-01T20:22:26.133Z,100809.56
2019-03-01T20:24:56.844Z,100809.20
2019-03-01T20:27:27.378Z,100804.01
2019-03-01T20:29:58.346Z,100809.61
2019-03-01T20:32:28.938Z,100810.08
2019-03-01T20:34:59.199Z,100814.22
2019-03-01T20:37:35.954Z,100816.00
2019-03-01T20:40:09.817Z,100818.66
2019-03-01T20:42:41.690Z,100816.09
2019-03-01T20:45:18.494Z,100817.38
2019-03-01T20:47:50.545Z,100815.80
2019-03-01T20:50:21.549Z,100819.58
2019-03-01T20:52:54.018Z,100816.05
2019-03-01T20:55:26.417Z,100834.69
2019-03-01T20:57:59.741Z,100838.55
2019-03-01T21:00:33.248Z,100836.20
2019-03-01T21:03:04.003Z,100836.58
2019-03-01T21:05:34.654Z,100837.62
2019-03-01T21:08:05.072Z,100835.30
2019-03-01T21:10:38.512Z,100833.29
2019-03-01T21:13:12.573Z,100835.69
2019-03-01T21:15:42.846Z,100836.15
2019-03-01T21:18:12.973Z,100835.58
2019-03-01T21:20:43.206Z,100833.67
2019-03-01T21:23:15.115Z,100831.53
2019-03-01T21:25:45.823Z,100828.91
2019-03-01T21:28:17.133Z,100833.67
2019-03-01T21:30:48.568Z,100831.39
2019-03-01T21:33:19.266Z,100829.33
2019-03-01T21:35:51.211Z,100832.02
2019-03-01T21:38:22.849Z,100836.17
2019-03-01T21:40:54.911Z,100837.20
2019-03-01T21:43:25.421Z,100837.05
2019-03-01T21:45:58.851Z,100834.59
2019-03-01T21:48:29.892Z,100833.48
2019-03-01T21:51:00.295Z,100838.00
2019-03-01T21:53:32.073Z,100839.58
2019-03-01T21:56:04.584Z,100839.95
2019-03-01T21:58:38.650Z,100842.31
2019-03-01T22:01:09.576Z,100844.52
2019-03-01T22:03:40.750Z,100840.36
2019-03-01T22:06:11.182Z,100840.27
2019-03-01T22:08:44.855Z,100834.70
2019-03-01T22:11:14.974Z,100840.44
2019-03-01T22:13:47.303Z,100835.21
2019-03-01T22:16:17.719Z,100838.25
2019-03-01T22:18:48.321Z,100835.95
2019-03-01T22:21:22.568Z,100834.88
2019-03-01T22:23:52.627Z,100833.97
2019-03-01T22:26:23.551Z,100842.59
2019-03-01T22:28:54.423Z,100842.52
2019-03-01T22:31:25.825Z,100847.33
2019-03-01T22:33:56.756Z,100846.75
2019-03-01T22:36:28.424Z,100851.81
2019-03-01T22:38:59.854Z,100853.48
2019-03-01T22:41:32.157Z,100849.16
2019-03-01T22:44:04.137Z,100853.92
2019-03-01T22:46:37.618Z,100856.09
2019-03-01T22:49:07.843Z,100859.45
2019-03-01T22:51:38.094Z,100851.23
2019-03-01T22:54:09.040Z,100854.93
2019-03-01T22:56:40.618Z,100851.98
2019-03-01T22:59:11.965Z,100856.75
2019-03-01T23:01:45.100Z,100858.62
2019-03-01T23:04:15.741Z,100864.59
2019-03-01T23:06:47.646Z,100863.02
2019-03-01T23:09:20.202Z,100865.55
2019-03-01T23:11:50.538Z,100858.16
2019-03-01T23:14:21.369Z,100856.50
2019-03-01T23:16:55.596Z,100859.03
2019-03-01T23:19:26.047Z,100862.44
2019-03-01T23:21:58.209Z,100862.98
2019-03-01T23:24:31.664Z,100860.98
2019-03-01T23:27:02.013Z,100866.83
2019-03-01T23:29:32.682Z,100870.86
2019-03-01T23:32:02.977Z,100869.61
2019-03-01T23:34:35.247Z,100881.31
2019-03-01T23:37:07.360Z,100877.16
2019-03-01T23:39:37.787Z,100877.04
2019-03-01T23:42:08.023Z,100878.20
2019-03-01T23:44:38.691Z,100877.70
2019-03-01T23:47:12.236Z,100890.94
2019-03-01T23:49:44.832Z,100882.17
2019-03-01T23:52:16.253Z,100885.08
2019-03-01T23:54:48.404Z,100885.34
2019-03-01T23:57:20.098Z,100881.72
2019-03-01T23:59:51.328Z,100884.41
